createdAt,value
2019-02-11T00:00:58.363Z,20.31
2019-02-11T00:03:26.602Z,20.28
2019-02-11T00:05:54.761Z,20.30
2019-02-11T00:08:22.911Z,20.26
2019-02-11T00:10:51.109Z,20.31
2019-02-11T00:13:19.304Z,20.30
2019-02-11T00:15:47.496Z,20.31
2019-02-11T00:18:15.686Z,20.31
2019-02-11T00:20:43.971Z,20.26
2019-02-11T00:23:12.138Z,20.30
2019-02-11T00:25:40.341Z,20.28
2019-02-11T00:28:08.490Z,20.26
2019-02-11T00:30:36.679Z,20.26
2019-02-11T00:33:04.836Z,20.28
2019-02-11T00:35:33.014Z,20.26
2019-02-11T00:38:01.179Z,20.24
2019-02-11T00:40:29.329Z,20.28
2019-02-11T00:42:57.519Z,20.26
2019-02-11T00:45:25.689Z,20.26
2019-02-11T00:47:53.881Z,20.26
2019-02-11T00:50:22.075Z,20.24
2019-02-11T00:52:50.212Z,20.21
2019-02-11T00:55:18.402Z,20.23
2019-02-11T00:57:46.556Z,20.20
2019-02-11T01:00:14.746Z,20.19
2019-02-11T01:02:42.912Z,20.24
2019-02-11T01:05:11.076Z,20.23
2019-02-11T01:07:39.301Z,20.22
2019-02-11T01:10:08.485Z,20.25
2019-02-11T01:12:36.669Z,20.24
2019-02-11T01:15:05.334Z,20.22
2019-02-11T01:17:33.516Z,20.20
2019-02-11T01:20:01.686Z,20.24
2019-02-11T01:22:29.848Z,20.22
2019-02-11T01:24:58.059Z,20.21
2019-02-11T01:27:26.323Z,20.23
2019-02-11T01:29:54.505Z,20.20
2019-02-11T01:32:22.681Z,20.20
2019-02-11T01:34:50.834Z,20.19
2019-02-11T01:37:19.031Z,20.18
2019-02-11T01:39:47.164Z,20.18
2019-02-11T01:42:15.324Z,20.20
2019-02-11T01:44:43.481Z,20.16
2019-02-11T01:47:11.649Z,20.16
2019-02-11T01:49:39.870Z,20.15
2019-02-11T01:52:08.021Z,20.16
2019-02-11T01:54:36.200Z,20.15
2019-02-11T01:57:04.445Z,20.18
2019-02-11T01:59:32.678Z,20.19
2019-02-11T02:02:00.828Z,20.19
2019-02-11T02:04:28.984Z,20.23
2019-02-11T02:06:57.137Z,20.18
2019-02-11T02:09:25.353Z,20.16
2019-02-11T02:11:53.620Z,20.17
2019-02-11T02:14:21.790Z,20.14
2019-02-11T02:16:50.012Z,20.14
2019-02-11T02:19:18.253Z,20.14
2019-02-11T02:21:46.397Z,20.16
2019-02-11T02:24:14.533Z,20.14
2019-02-11T02:26:42.694Z,20.18
2019-02-11T02:29:10.938Z,20.18
2019-02-11T02:31:39.112Z,20.17
2019-02-11T02:34:07.249Z,20.18
2019-02-11T02:36:35.575Z,20.19
2019-02-11T02:39:04.749Z,20.17
2019-02-11T02:41:32.881Z,20.16
2019-02-11T02:44:01.067Z,20.17
2019-02-11T02:46:29.206Z,20.14
2019-02-11T02:48:57.337Z,20.14
2019-02-11T02:51:25.528Z,20.15
2019-02-11T02:53:53.693Z,20.13
2019-02-11T02:56:21.852Z,20.13
2019-02-11T02:58:50.002Z,20.12
2019-02-11T03:01:18.124Z,20.09
2019-02-11T03:03:46.261Z,20.12
2019-02-11T03:06:14.401Z,20.15
2019-02-11T03:08:42.568Z,20.15
2019-02-11T03:11:10.705Z,20.12
2019-02-11T03:13:38.957Z,20.13
2019-02-11T03:16:07.088Z,20.14
2019-02-11T03:18:35.246Z,20.13
2019-02-11T03:21:03.394Z,20.10
2019-02-11T03:23:31.530Z,20.09
2019-02-11T03:25:59.689Z,20.12
2019-02-11T03:28:27.854Z,20.09
2019-02-11T03:30:56.005Z,20.09
2019-02-11T03:33:24.137Z,20.07
2019-02-11T03:35:52.285Z,20.10
2019-02-11T03:38:20.464Z,20.10
2019-02-11T03:40:48.753Z,20.09
2019-02-11T03:43:16.893Z,20.09
2019-02-11T03:45:45.035Z,20.05
2019-02-11T03:48:13.176Z,20.05
2019-02-11T03:50:41.318Z,20.07
2019-02-11T03:53:09.479Z,20.04
2019-02-11T03:55:37.617Z,20.07
2019-02-11T03:58:05.810Z,20.05
2019-02-11T04:00:33.939Z,20.05
2019-02-11T04:03:02.181Z,20.05
2019-02-11T04:05:30.320Z,20.06
2019-02-11T04:07:58.494Z,20.07
2019-02-11T04:10:26.624Z,20.07
2019-02-11T04:12:54.770Z,20.06
2019-02-11T04:15:22.956Z,20.07
2019-02-11T04:17:51.106Z,20.10
2019-02-11T04:20:19.245Z,20.09
2019-02-11T04:22:47.386Z,20.07
2019-02-11T04:25:15.556Z,20.06
2019-02-11T04:27:43.680Z,20.07
2019-02-11T04:30:12.191Z,20.06
2019-02-11T04:32:40.337Z,20.07
2019-02-11T04:35:08.585Z,20.09
2019-02-11T04:37:37.356Z,20.06
2019-02-11T04:40:05.628Z,20.05
2019-02-11T04:42:34.037Z,20.04
2019-02-11T04:45:02.539Z,20.05
2019-02-11T04:47:30.987Z,20.05
2019-02-11T04:49:59.264Z,20.08
2019-02-11T04:52:27.368Z,20.06
2019-02-11T04:54:55.670Z,20.07
2019-02-11T04:57:24.020Z,20.06
2019-02-11T04:59:52.550Z,20.06
2019-02-11T05:02:21.003Z,20.02
2019-02-11T05:04:49.267Z,20.03
2019-02-11T05:07:17.414Z,20.01
2019-02-11T05:09:45.544Z,20.02
2019-02-11T05:12:13.676Z,20.05
2019-02-11T05:14:43.931Z,20.01
2019-02-11T05:17:11.725Z,20.02
2019-02-11T05:19:39.889Z,20.01
2019-02-11T05:22:08.092Z,20.04
2019-02-11T05:24:36.317Z,20.03
2019-02-11T05:27:04.501Z,20.02
2019-02-11T05:29:32.730Z,20.02
2019-02-11T05:32:00.982Z,20.03
2019-02-11T05:34:29.137Z,20.01
2019-02-11T05:36:57.342Z,20.05
2019-02-11T05:39:25.485Z,20.05
2019-02-11T05:41:53.699Z,20.03
2019-02-11T05:44:21.865Z,20.02
2019-02-11T05:46:50.177Z,20.03
2019-02-11T05:49:18.337Z,20.02
2019-02-11T05:51:46.509Z,20.01
2019-02-11T05:54:14.681Z,19.98
2019-02-11T05:56:42.965Z,20.02
2019-02-11T05:59:11.134Z,20.01
2019-02-11T06:01:39.324Z,19.97
2019-02-11T06:04:07.480Z,19.97
2019-02-11T06:06:35.668Z,19.98
2019-02-11T06:09:04.972Z,19.98
2019-02-11T06:11:33.170Z,19.97
2019-02-11T06:14:01.436Z,19.95
2019-02-11T06:16:29.617Z,19.99
2019-02-11T06:18:57.772Z,19.96
2019-02-11T06:21:25.929Z,19.97
2019-02-11T06:23:54.129Z,19.97
2019-02-11T06:26:22.380Z,19.96
2019-02-11T06:28:50.571Z,19.98
2019-02-11T06:31:18.816Z,19.98
2019-02-11T06:33:47.011Z,19.94
2019-02-11T06:36:15.282Z,19.95
2019-02-11T06:38:43.513Z,19.98
2019-02-11T06:41:11.710Z,19.94
2019-02-11T06:43:39.901Z,19.95
2019-02-11T06:46:08.074Z,19.92
2019-02-11T06:48:36.249Z,19.91
2019-02-11T06:51:04.511Z,19.94
2019-02-11T06:53:32.689Z,19.92
2019-02-11T06:56:00.869Z,19.92
2019-02-11T06:58:29.072Z,19.92
2019-02-11T07:00:57.269Z,19.92
2019-02-11T07:03:25.496Z,19.91
2019-02-11T07:05:53.644Z,19.92
2019-02-11T07:08:21.852Z,19.93
2019-02-11T07:10:55.418Z,19.90
2019-02-11T07:13:20.675Z,19.91
2019-02-11T07:15:48.944Z,19.94
2019-02-11T07:18:17.149Z,19.91
2019-02-11T07:20:45.390Z,19.91
2019-02-11T07:23:13.604Z,19.92
2019-02-11T07:25:41.810Z,19.92
2019-02-11T07:28:10.006Z,19.92
2019-02-11T07:30:38.188Z,19.93
2019-02-11T07:33:06.421Z,19.93
2019-02-11T07:35:34.631Z,19.93
2019-02-11T07:38:02.804Z,19.92
2019-02-11T07:40:31.017Z,19.92
2019-02-11T07:43:18.163Z,19.93
2019-02-11T07:48:48.440Z,19.93
2019-02-11T07:51:16.643Z,19.93
2019-02-11T07:53:44.851Z,19.91
2019-02-11T07:56:13.089Z,19.89
2019-02-11T07:58:41.315Z,19.93
2019-02-11T08:01:09.546Z,19.92
2019-02-11T08:03:37.816Z,19.91
2019-02-11T08:06:06.205Z,19.06
2019-02-11T08:08:34.560Z,19.91
2019-02-11T08:11:03.376Z,19.93
2019-02-11T08:13:31.708Z,19.95
2019-02-11T08:16:00.085Z,19.91
2019-02-11T08:18:28.292Z,19.92
2019-02-11T08:20:56.471Z,19.96
2019-02-11T08:23:24.700Z,19.96
2019-02-11T08:25:53.098Z,19.96
2019-02-11T08:28:21.361Z,19.96
2019-02-11T08:30:51.777Z,19.98
2019-02-11T08:33:20.249Z,19.99
2019-02-11T08:35:48.499Z,19.99
2019-02-11T08:38:16.790Z,19.96
2019-02-11T08:40:45.075Z,19.95
2019-02-11T08:43:13.393Z,19.92
2019-02-11T08:45:46.834Z,19.96
2019-02-11T08:48:11.797Z,19.96
2019-02-11T08:50:40.011Z,19.95
2019-02-11T08:53:08.266Z,19.93
2019-02-11T08:55:36.435Z,19.94
2019-02-11T08:58:04.628Z,19.95
2019-02-11T09:00:32.845Z,19.95
2019-02-11T09:03:01.021Z,19.93
2019-02-11T09:05:29.246Z,19.92
2019-02-11T09:07:57.416Z,19.95
2019-02-11T09:10:25.591Z,19.95
2019-02-11T09:12:53.798Z,19.96
2019-02-11T09:15:22.037Z,19.98
2019-02-11T09:17:50.322Z,19.96
2019-02-11T09:20:18.471Z,19.96
2019-02-11T09:22:46.713Z,19.96
2019-02-11T09:25:14.885Z,19.95
2019-02-11T09:27:43.057Z,19.92
2019-02-11T09:30:12.509Z,19.91
2019-02-11T09:32:40.785Z,19.93
2019-02-11T09:35:08.978Z,19.92
2019-02-11T09:37:37.196Z,19.90
2019-02-11T09:40:05.707Z,19.93
2019-02-11T09:42:33.909Z,19.93
2019-02-11T09:45:02.115Z,19.95
2019-02-11T09:47:30.356Z,19.95
2019-02-11T09:50:11.751Z,19.92
2019-02-11T09:52:39.889Z,19.90
2019-02-11T09:55:11.117Z,19.93
2019-02-11T09:57:39.305Z,19.91
2019-02-11T10:00:07.464Z,19.91
2019-02-11T10:02:35.664Z,19.93
2019-02-11T10:05:03.817Z,19.92
2019-02-11T10:07:32.062Z,19.94
2019-02-11T10:10:00.267Z,19.94
2019-02-11T10:12:28.449Z,19.92
2019-02-11T10:14:56.630Z,19.92
2019-02-11T10:17:29.839Z,19.93
2019-02-11T10:19:54.724Z,19.91
2019-02-11T10:22:22.889Z,19.92
2019-02-11T10:24:51.136Z,19.91
2019-02-11T10:27:19.395Z,19.91
2019-02-11T10:29:47.557Z,19.90
2019-02-11T10:32:15.745Z,19.90
2019-02-11T10:34:43.981Z,19.92
2019-02-11T10:37:12.198Z,19.85
2019-02-11T10:39:40.374Z,19.91
2019-02-11T10:42:08.618Z,19.89
2019-02-11T10:44:36.770Z,19.88
2019-02-11T10:47:05.511Z,19.86
2019-02-11T10:49:33.750Z,19.87
2019-02-11T10:52:01.908Z,19.90
2019-02-11T10:54:30.072Z,19.92
2019-02-11T10:56:58.277Z,19.91
2019-02-11T10:59:26.423Z,19.90
2019-02-11T11:01:54.570Z,19.92
2019-02-11T11:04:22.711Z,19.89
2019-02-11T11:06:51.012Z,19.89
2019-02-11T11:09:19.155Z,19.92
2019-02-11T11:11:47.304Z,19.90
2019-02-11T11:14:15.649Z,19.93
2019-02-11T11:16:43.809Z,19.94
2019-02-11T11:19:11.987Z,19.98
2019-02-11T11:21:40.139Z,19.93
2019-02-11T11:24:08.295Z,19.98
2019-02-11T11:26:36.446Z,19.93
2019-02-11T11:29:05.945Z,19.96
2019-02-11T11:31:34.265Z,19.90
2019-02-11T11:34:02.411Z,19.95
2019-02-11T11:36:30.575Z,19.99
2019-02-11T11:38:58.712Z,20.00
2019-02-11T11:41:26.856Z,20.01
2019-02-11T11:43:55.034Z,20.04
2019-02-11T11:46:23.169Z,20.08
2019-02-11T11:48:51.357Z,20.05
2019-02-11T11:51:19.499Z,20.03
2019-02-11T11:53:47.690Z,20.01
2019-02-11T11:56:15.825Z,20.02
2019-02-11T11:58:43.993Z,20.02
2019-02-11T12:01:12.433Z,20.04
2019-02-11T12:03:40.704Z,20.02
2019-02-11T12:06:08.836Z,20.00
2019-02-11T12:08:36.983Z,20.00
2019-02-11T12:11:05.167Z,19.98
2019-02-11T12:13:33.295Z,20.00
2019-02-11T12:16:01.436Z,20.01
2019-02-11T12:18:29.581Z,20.02
2019-02-11T12:20:57.727Z,20.02
2019-02-11T12:23:25.900Z,20.01
2019-02-11T12:25:54.045Z,19.99
2019-02-11T12:28:22.223Z,20.02
2019-02-11T12:30:53.700Z,20.00
2019-02-11T12:33:20.185Z,19.99
2019-02-11T12:35:48.324Z,19.99
2019-02-11T12:38:16.470Z,20.03
2019-02-11T12:40:44.638Z,20.02
2019-02-11T12:43:12.811Z,20.01
2019-02-11T12:45:40.959Z,20.07
2019-02-11T12:48:09.116Z,20.05
2019-02-11T12:50:37.231Z,20.02
2019-02-11T12:53:05.385Z,20.01
2019-02-11T12:55:33.534Z,19.99
2019-02-11T12:58:01.715Z,20.00
2019-02-11T13:00:29.841Z,20.02
2019-02-11T13:02:57.999Z,20.04
2019-02-11T13:05:43.434Z,20.04
2019-02-11T13:07:56.006Z,20.10
2019-02-11T13:10:24.196Z,20.17
2019-02-11T13:12:52.396Z,20.09
2019-02-11T13:15:52.706Z,20.09
2019-02-11T13:17:50.746Z,20.06
2019-02-11T13:20:19.663Z,20.07
2019-02-11T13:22:48.144Z,20.07
2019-02-11T13:25:16.454Z,20.04
2019-02-11T13:27:45.054Z,20.09
2019-02-11T13:30:14.600Z,20.12
2019-02-11T13:32:42.903Z,20.08
2019-02-11T13:35:11.710Z,20.10
2019-02-11T13:37:39.992Z,20.10
2019-02-11T13:40:08.520Z,20.06
2019-02-11T13:42:36.812Z,20.09
2019-02-11T13:45:06.098Z,20.07
2019-02-11T13:47:50.963Z,20.10
2019-02-11T13:50:04.359Z,20.08
2019-02-11T13:52:32.637Z,20.11
2019-02-11T13:55:01.006Z,20.06
2019-02-11T13:57:29.375Z,20.05
2019-02-11T13:59:58.194Z,20.06
2019-02-11T14:02:26.494Z,20.07
2019-02-11T14:04:54.777Z,20.09
2019-02-11T14:07:23.063Z,20.09
2019-02-11T14:09:51.331Z,20.09
2019-02-11T14:12:19.600Z,20.08
2019-02-11T14:14:48.189Z,20.08
2019-02-11T14:17:16.475Z,20.10
2019-02-11T14:19:44.783Z,20.08
2019-02-11T14:22:13.058Z,20.07
2019-02-11T14:24:41.337Z,20.07
2019-02-11T14:27:10.359Z,20.07
2019-02-11T14:29:38.627Z,20.07
2019-02-11T14:32:07.065Z,20.05
2019-02-11T14:34:35.305Z,20.06
2019-02-11T14:37:03.557Z,20.03
2019-02-11T14:39:31.866Z,20.02
2019-02-11T14:42:00.241Z,20.04
2019-02-11T14:44:28.560Z,20.04
2019-02-11T14:46:56.712Z,20.06
2019-02-11T14:49:25.130Z,20.04
2019-02-11T14:51:53.458Z,20.03
2019-02-11T14:54:21.823Z,20.01
2019-02-11T14:56:50.187Z,20.01
2019-02-11T14:59:18.605Z,19.99
2019-02-11T15:01:46.944Z,19.98
2019-02-11T15:04:15.176Z,19.99
2019-02-11T15:06:43.496Z,19.96
2019-02-11T15:09:11.785Z,19.93
2019-02-11T15:11:40.094Z,19.96
2019-02-11T15:14:08.305Z,19.96
2019-02-11T15:16:36.467Z,19.92
2019-02-11T15:19:04.837Z,19.92
2019-02-11T15:21:33.130Z,19.92
2019-02-11T15:24:01.406Z,19.94
2019-02-11T15:26:29.668Z,19.93
2019-02-11T15:28:59.145Z,19.92
2019-02-11T15:31:27.360Z,19.92
2019-02-11T15:33:55.593Z,19.95
2019-02-11T15:36:23.874Z,19.94
2019-02-11T15:38:52.050Z,19.96
2019-02-11T15:41:20.261Z,19.95
2019-02-11T15:43:48.502Z,19.93
2019-02-11T15:46:16.784Z,19.93
2019-02-11T15:48:44.988Z,19.95
2019-02-11T15:51:13.213Z,19.91
2019-02-11T15:53:41.416Z,19.90
2019-02-11T15:56:09.693Z,19.90
2019-02-11T15:58:37.871Z,19.91
2019-02-11T16:01:06.154Z,19.90
2019-02-11T16:03:34.324Z,19.89
2019-02-11T16:06:10.296Z,19.90
2019-02-11T16:08:32.362Z,19.91
2019-02-11T16:11:01.624Z,19.90
2019-02-11T16:13:29.889Z,19.91
2019-02-11T16:15:58.130Z,19.90
2019-02-11T16:18:26.341Z,19.89
2019-02-11T16:20:54.482Z,19.88
2019-02-11T16:23:22.712Z,19.86
2019-02-11T16:25:50.914Z,19.89
2019-02-11T16:28:19.145Z,19.87
2019-02-11T16:30:47.386Z,19.88
2019-02-11T16:33:15.606Z,19.88
2019-02-11T16:35:43.768Z,19.85
2019-02-11T16:38:11.981Z,19.87
2019-02-11T16:40:40.177Z,19.89
2019-02-11T16:43:08.388Z,19.88
2019-02-11T16:45:36.556Z,19.84
2019-02-11T16:48:04.774Z,19.83
2019-02-11T16:50:32.964Z,19.84
2019-02-11T16:53:01.123Z,19.86
2019-02-11T16:55:29.312Z,19.84
2019-02-11T16:57:57.534Z,19.85
2019-02-11T17:00:25.739Z,19.83
2019-02-11T17:02:53.939Z,19.85
2019-02-11T17:05:22.139Z,19.83
2019-02-11T17:07:50.325Z,19.87
2019-02-11T17:10:18.498Z,19.84
2019-02-11T17:12:46.787Z,19.85
2019-02-11T17:15:15.640Z,19.85
2019-02-11T17:17:43.821Z,19.82
2019-02-11T17:20:12.225Z,19.82
2019-02-11T17:22:40.369Z,19.83
2019-02-11T17:25:09.059Z,19.83
2019-02-11T17:27:37.207Z,19.81
2019-02-11T17:30:06.165Z,19.83
2019-02-11T17:32:34.334Z,19.82
2019-02-11T17:35:02.493Z,19.78
2019-02-11T17:37:30.670Z,19.76
2019-02-11T17:39:58.861Z,19.77
2019-02-11T17:42:27.102Z,19.76
2019-02-11T17:44:55.249Z,19.74
2019-02-11T17:47:23.485Z,19.70
2019-02-11T17:49:51.671Z,19.69
2019-02-11T17:52:19.828Z,19.67
2019-02-11T17:54:48.236Z,19.67
2019-02-11T17:57:16.431Z,19.65
2019-02-11T17:59:44.850Z,19.64
2019-02-11T18:02:14.809Z,19.66
2019-02-11T18:04:43.009Z,19.68
2019-02-11T18:07:11.373Z,19.70
2019-02-11T18:09:39.550Z,19.73
2019-02-11T18:12:07.733Z,19.74
2019-02-11T18:14:35.977Z,19.75
2019-02-11T18:17:04.108Z,19.75
2019-02-11T18:19:32.242Z,19.71
2019-02-11T18:22:00.409Z,19.74
2019-02-11T18:24:28.570Z,19.75
2019-02-11T18:26:56.708Z,19.76
2019-02-11T18:29:24.854Z,19.76
2019-02-11T18:31:52.994Z,19.76
2019-02-11T18:34:21.149Z,19.74
2019-02-11T18:36:49.365Z,19.73
2019-02-11T18:39:17.525Z,19.72
2019-02-11T18:41:45.675Z,19.73
2019-02-11T18:44:13.833Z,19.74
2019-02-11T18:46:41.998Z,19.74
2019-02-11T18:49:10.133Z,19.72
2019-02-11T18:51:38.286Z,19.73
2019-02-11T18:54:06.749Z,19.72
2019-02-11T18:56:34.955Z,19.72
2019-02-11T18:59:03.084Z,19.71
2019-02-11T19:01:31.257Z,19.73
2019-02-11T19:03:59.399Z,19.71
2019-02-11T19:06:27.546Z,19.70
2019-02-11T19:08:55.695Z,19.73
2019-02-11T19:11:23.848Z,19.74
2019-02-11T19:13:52.009Z,19.71
2019-02-11T19:16:20.159Z,19.73
2019-02-11T19:18:48.332Z,19.28
2019-02-11T19:21:16.484Z,19.71
2019-02-11T19:23:44.622Z,19.72
2019-02-11T19:26:12.755Z,19.73
2019-02-11T19:28:40.909Z,19.71
2019-02-11T19:31:09.063Z,19.69
2019-02-11T19:33:37.203Z,19.70
2019-02-11T19:36:05.632Z,19.69
2019-02-11T19:38:34.012Z,19.67
2019-02-11T19:41:02.830Z,19.63
2019-02-11T19:43:30.966Z,19.63
2019-02-11T19:45:59.104Z,19.65
2019-02-11T19:48:27.263Z,19.67
2019-02-11T19:50:55.415Z,19.68
2019-02-11T19:53:23.553Z,19.69
2019-02-11T19:55:51.696Z,19.69
2019-02-11T19:58:19.816Z,19.67
2019-02-11T20:00:48.019Z,19.66
2019-02-11T20:03:16.161Z,19.67
2019-02-11T20:05:44.306Z,19.68
2019-02-11T20:08:12.465Z,19.68
2019-02-11T20:10:40.647Z,19.65
2019-02-11T20:13:08.854Z,19.69
2019-02-11T20:15:37.050Z,19.71
2019-02-11T20:18:05.273Z,19.69
2019-02-11T20:20:33.489Z,19.68
2019-02-11T20:23:01.654Z,19.67
2019-02-11T20:25:29.876Z,19.66
2019-02-11T20:27:58.244Z,19.65
2019-02-11T20:30:26.414Z,19.68
2019-02-11T20:32:54.606Z,19.67
2019-02-11T20:35:22.764Z,19.68
2019-02-11T20:37:50.954Z,19.69
2019-02-11T20:40:19.934Z,19.68
2019-02-11T20:42:48.114Z,19.70
2019-02-11T20:45:17.928Z,19.73
2019-02-11T20:47:46.104Z,19.76
2019-02-11T20:50:14.288Z,19.82
2019-02-11T20:52:42.463Z,19.85
2019-02-11T20:55:11.309Z,19.87
2019-02-11T20:57:39.492Z,19.87
2019-02-11T21:00:09.573Z,19.90
2019-02-11T21:02:37.795Z,19.89
2019-02-11T21:05:06.296Z,19.90
2019-02-11T21:07:34.505Z,19.92
2019-02-11T21:10:02.725Z,19.92
2019-02-11T21:12:31.040Z,19.98
2019-02-11T21:14:59.288Z,20.02
2019-02-11T21:17:27.454Z,20.06
2019-02-11T21:19:55.642Z,20.08
2019-02-11T21:22:23.900Z,20.08
2019-02-11T21:24:53.095Z,20.08
2019-02-11T21:27:21.315Z,20.09
2019-02-11T21:29:49.498Z,20.09
2019-02-11T21:32:17.759Z,20.11
2019-02-11T21:34:45.965Z,20.11
2019-02-11T21:37:14.161Z,20.10
2019-02-11T21:39:42.426Z,20.02
2019-02-11T21:42:10.621Z,19.98
2019-02-11T21:44:38.801Z,19.95
2019-02-11T21:47:07.020Z,19.93
2019-02-11T21:49:35.193Z,19.98
2019-02-11T21:52:03.387Z,20.01
2019-02-11T21:54:31.569Z,20.04
2019-02-11T21:56:59.731Z,20.06
2019-02-11T21:59:27.933Z,20.09
2019-02-11T22:01:56.150Z,20.09
2019-02-11T22:04:24.414Z,20.10
2019-02-11T22:06:52.586Z,20.14
2019-02-11T22:09:20.801Z,20.13
2019-02-11T22:11:48.952Z,20.09
2019-02-11T22:14:17.100Z,20.09
2019-02-11T22:16:45.223Z,20.11
2019-02-11T22:19:13.388Z,20.12
2019-02-11T22:21:41.662Z,20.10
2019-02-11T22:24:09.825Z,20.14
2019-02-11T22:26:38.054Z,20.11
2019-02-11T22:29:06.263Z,20.12
2019-02-11T22:31:34.472Z,20.13
2019-02-11T22:34:03.346Z,20.09
2019-02-11T22:36:31.537Z,20.06
2019-02-11T22:38:59.768Z,20.02
2019-02-11T22:41:27.979Z,19.98
2019-02-11T22:43:56.241Z,19.96
2019-02-11T22:46:24.364Z,19.94
2019-02-11T22:48:52.585Z,19.92
2019-02-11T22:51:20.778Z,19.93
2019-02-11T22:53:48.930Z,19.90
2019-02-11T22:56:17.098Z,19.91
2019-02-11T22:58:45.253Z,19.90
2019-02-11T23:01:13.405Z,19.87
2019-02-11T23:03:41.553Z,19.87
2019-02-11T23:06:09.777Z,19.87
2019-02-11T23:08:37.976Z,19.89
2019-02-11T23:11:06.154Z,19.90
2019-02-11T23:13:34.388Z,19.89
2019-02-11T23:16:02.556Z,19.86
2019-02-11T23:18:30.709Z,19.87
2019-02-11T23:20:58.886Z,19.85
2019-02-11T23:23:27.097Z,19.85
2019-02-11T23:25:55.358Z,19.83
2019-02-11T23:28:23.492Z,19.84
2019-02-11T23:30:51.674Z,19.85
2019-02-11T23:33:19.902Z,19.86
2019-02-11T23:35:48.063Z,19.85
2019-02-11T23:38:16.232Z,19.86
2019-02-11T23:40:44.386Z,19.84
2019-02-11T23:43:12.558Z,19.82
2019-02-11T23:45:40.687Z,19.83
2019-02-11T23:48:08.886Z,19.82
2019-02-11T23:50:37.054Z,19.83
2019-02-11T23:53:05.213Z,19.82
2019-02-11T23:55:33.372Z,19.79
2019-02-11T23:58:01.537Z,19.82
